Time;durP1;ratioP1;P1;durP2;ratioP2;P2;SDS_P1;SDS_P2;PMS_P1;PMS_P2;Temp;Humidity;BMP_temperature;BMP_pressure;BME280_temperature;BME280_humidity;BME280_pressure;Samples;Min_cycle;Max_cycle;Signal;HPM_P1;HPM_P2
2022/06/04 00:00:28;;;;;;;31.33;25.00;;;17.90;52.30;;;;;;5048846;28;20382;-64
2022/06/04 00:02:55;;;;;;;33.55;25.27;;;17.80;55.70;;;;;;5047274;28;20398;-63
2022/06/04 00:05:27;;;;;;;33.40;25.10;;;17.70;89.60;;;;;;5050696;28;20492;-63
2022/06/04 00:07:54;;;;;;;31.98;25.75;;;17.70;99.90;;;;;;5048847;28;20439;-63
2022/06/04 00:15:55;;;;;;;31.40;25.13;;;17.90;99.90;;;;;;5049084;28;20380;-63
2022/06/04 00:18:22;;;;;;;33.10;25.13;;;17.90;77.10;;;;;;5051060;28;20385;-62
2022/06/04 00:20:49;;;;;;;35.13;24.75;;;17.90;52.60;;;;;;5051411;28;20382;-63
2022/06/04 00:23:15;;;;;;;32.60;25.48;;;17.90;26.10;;;;;;5050635;28;20484;-58
2022/06/04 00:25:45;;;;;;;33.67;26.38;;;17.00;35.10;;;;;;5050442;28;20413;-63
2022/06/04 00:28:11;;;;;;;35.50;27.63;;;17.70;55.60;;;;;;5050277;28;20379;-62
2022/06/04 00:30:38;;;;;;;37.58;28.75;;;17.60;90.50;;;;;;5050014;28;21035;-62
2022/06/04 00:33:04;;;;;;;36.15;26.65;;;17.60;99.80;;;;;;5051215;28;20492;-63
2022/06/04 00:35:30;;;;;;;36.35;27.48;;;17.60;99.90;;;;;;5049921;28;20489;-62
2022/06/04 00:37:56;;;;;;;39.53;27.42;;;17.50;99.90;;;;;;5051117;28;20404;-64
2022/06/04 00:40:43;;;;;;;36.67;27.15;;;17.50;99.90;;;;;;5050427;28;20374;-63
2022/06/04 00:43:10;;;;;;;34.88;26.52;;;17.50;99.90;;;;;;5051595;28;20837;-62
2022/06/04 00:45:35;;;;;;;34.88;26.65;;;17.50;99.90;;;;;;5050458;28;20405;-63
2022/06/04 00:48:06;;;;;;;37.08;26.00;;;17.50;99.90;;;;;;5051224;28;20519;-61
2022/06/04 00:50:34;;;;;;;34.65;24.92;;;17.50;99.90;;;;;;5050849;28;20385;-64
2022/06/04 00:53:04;;;;;;;33.75;26.08;;;17.60;99.90;;;;;;5050853;28;20389;-63
2022/06/04 00:55:45;;;;;;;37.42;27.20;;;17.60;55.80;;;;;;5050425;28;20882;-62
2022/06/04 00:58:38;;;;;;;32.40;25.70;;;17.60;44.50;;;;;;5050964;28;20392;-61
2022/06/04 01:01:14;;;;;;;34.05;25.75;;;17.40;88.50;;;;;;5051086;28;20395;-63
2022/06/04 01:03:49;;;;;;;34.88;26.30;;;17.40;99.90;;;;;;5050177;28;20571;-62
2022/06/04 01:06:53;;;;;;;37.38;26.70;;;17.30;99.90;;;;;;5050730;28;20460;-62
2022/06/04 01:09:34;;;;;;;36.42;27.20;;;17.20;99.90;;;;;;5050437;28;20424;-56
2022/06/04 01:12:37;;;;;;;37.00;26.73;;;17.30;99.90;;;;;;5050276;28;20495;-62
2022/06/04 01:15:29;;;;;;;36.17;27.65;;;17.30;99.90;;;;;;5050922;28;20389;-62
2022/06/04 01:18:09;;;;;;;31.25;24.95;;;17.30;99.90;;;;;;5050935;28;20461;-62
2022/06/04 01:20:52;;;;;;;36.40;26.42;;;17.40;99.90;;;;;;5050138;28;20392;-63
2022/06/04 01:23:20;;;;;;;36.10;26.43;;;17.30;96.80;;;;;;5049965;28;20445;-56
2022/06/04 01:25:46;;;;;;;34.73;26.50;;;17.20;99.90;;;;;;5050186;28;20503;-64
2022/06/04 01:28:16;;;;;;;36.85;26.70;;;17.20;99.90;;;;;;5050373;28;20399;-62
2022/06/04 01:30:49;;;;;;;35.13;27.45;;;17.20;99.90;;;;;;5049847;28;20386;-63
2022/06/04 01:33:52;;;;;;;38.80;27.02;;;17.10;99.90;;;;;;5050344;28;20383;-63
2022/06/04 01:36:26;;;;;;;33.92;25.80;;;17.10;99.90;;;;;;4949362;29;20488;-57
2022/06/04 01:39:08;;;;;;;36.27;27.13;;;17.10;99.90;;;;;;5036641;28;20401;-62
2022/06/04 01:41:42;;;;;;;35.10;26.35;;;17.10;99.90;;;;;;5049616;28;20471;-63
2022/06/04 01:44:36;;;;;;;33.53;25.23;;;17.20;99.90;;;;;;5050043;28;20386;-62
2022/06/04 01:47:04;;;;;;;35.65;26.17;;;17.20;99.90;;;;;;5028441;28;20515;-63
2022/06/04 01:49:48;;;;;;;35.70;27.43;;;17.10;97.80;;;;;;5049001;28;20394;-63
2022/06/04 01:52:22;;;;;;;39.10;31.30;;;17.10;99.40;;;;;;5049547;28;20851;-62
2022/06/04 01:54:55;;;;;;;38.00;29.83;;;16.70;99.90;;;;;;5049670;28;20432;-60
2022/06/04 01:57:32;;;;;;;40.80;31.48;;;16.90;99.90;;;;;;5031254;28;20386;-56
2022/06/04 02:00:13;;;;;;;36.88;28.20;;;16.90;99.90;;;;;;5049427;28;20449;-62
2022/06/04 02:02:47;;;;;;;39.50;29.23;;;16.70;99.90;;;;;;5049049;28;20835;-62
2022/06/04 02:05:19;;;;;;;40.13;28.75;;;16.60;99.90;;;;;;5049419;28;20817;-60
2022/06/04 02:07:48;;;;;;;41.13;29.40;;;16.60;99.90;;;;;;5049168;28;20890;-62
2022/06/04 02:10:25;;;;;;;43.63;31.15;;;16.60;99.90;;;;;;5049713;28;20424;-58
2022/06/04 02:12:53;;;;;;;42.08;32.40;;;16.50;99.90;;;;;;5049842;28;20841;-62
2022/06/04 02:15:25;;;;;;;41.23;31.07;;;16.60;99.90;;;;;;5031427;28;20789;-56
2022/06/04 02:17:56;;;;;;;38.35;28.52;;;16.70;99.90;;;;;;5049340;28;20500;-61
2022/06/04 02:20:23;;;;;;;39.53;29.08;;;16.70;99.90;;;;;;5048647;28;20411;-61
2022/06/04 02:22:49;;;;;;;41.55;31.10;;;16.60;99.90;;;;;;5048232;28;20932;-62
2022/06/04 02:25:15;;;;;;;38.80;28.13;;;16.60;99.90;;;;;;5049277;28;20512;-65
2022/06/04 02:27:43;;;;;;;38.42;29.05;;;16.60;99.90;;;;;;5048459;28;20377;-63
2022/06/04 02:30:11;;;;;;;42.08;31.70;;;16.70;99.90;;;;;;5049473;28;20432;-63
2022/06/04 02:32:51;;;;;;;41.72;30.50;;;16.70;99.90;;;;;;5048628;28;20382;-62
2022/06/04 02:35:32;;;;;;;37.58;28.30;;;16.70;99.90;;;;;;5049633;28;20869;-63
2022/06/04 02:38:22;;;;;;;35.43;27.23;;;16.70;99.90;;;;;;5049560;28;20373;-62
2022/06/04 02:41:07;;;;;;;38.33;27.30;;;16.80;99.90;;;;;;5049226;28;20422;-64
2022/06/04 02:43:44;;;;;;;36.38;27.33;;;16.70;99.90;;;;;;5048346;28;20373;-66
2022/06/04 02:46:29;;;;;;;31.85;25.38;;;16.60;99.90;;;;;;5049035;28;20436;-62
2022/06/04 02:49:08;;;;;;;33.08;25.33;;;16.60;99.90;;;;;;5049215;28;20369;-65
2022/06/04 02:51:38;;;;;;;35.70;25.85;;;16.60;99.90;;;;;;5048355;28;20740;-66
2022/06/04 02:54:10;;;;;;;34.30;25.20;;;16.60;99.90;;;;;;5048859;28;20379;-66
2022/06/04 02:56:39;;;;;;;32.80;24.57;;;16.60;99.90;;;;;;5048721;28;20387;-64
2022/06/04 02:59:08;;;;;;;35.58;26.20;;;16.60;99.90;;;;;;5049024;28;20714;-66
2022/06/04 03:01:43;;;;;;;34.53;25.33;;;16.60;99.90;;;;;;5048268;28;20374;-66
2022/06/04 03:04:09;;;;;;;35.13;26.15;;;16.60;99.90;;;;;;5049311;28;20417;-66
2022/06/04 03:06:36;;;;;;;34.67;25.88;;;16.50;99.90;;;;;;5048227;28;20413;-65
2022/06/04 03:09:14;;;;;;;34.00;25.00;;;16.50;99.90;;;;;;5049107;28;20465;-66
2022/06/04 03:11:45;;;;;;;34.92;25.67;;;16.50;99.90;;;;;;5048085;28;20401;-65
2022/06/04 03:14:12;;;;;;;34.83;26.05;;;16.50;99.90;;;;;;5048651;28;20385;-66
2022/06/04 03:16:40;;;;;;;35.17;26.40;;;16.50;99.90;;;;;;5047855;28;20385;-65
2022/06/04 03:19:07;;;;;;;35.67;26.23;;;16.50;99.90;;;;;;5048757;28;20377;-65
2022/06/04 03:21:34;;;;;;;36.40;26.52;;;16.50;99.90;;;;;;5047689;28;20854;-60
2022/06/04 03:24:00;;;;;;;38.45;26.67;;;16.50;99.90;;;;;;5048558;28;20409;-65
2022/06/04 03:26:26;;;;;;;32.90;25.70;;;16.50;99.90;;;;;;5047815;28;20471;-65
2022/06/04 03:28:51;;;;;;;34.05;24.77;;;16.40;99.90;;;;;;5049030;28;20793;-65
2022/06/04 03:31:17;;;;;;;35.13;25.77;;;16.30;99.90;;;;;;5049450;28;20381;-62
2022/06/04 03:33:42;;;;;;;35.87;25.67;;;16.30;99.90;;;;;;5048427;28;20393;-65
2022/06/04 03:36:09;;;;;;;39.87;28.00;;;16.30;99.90;;;;;;5052851;28;20385;-65
2022/06/04 03:38:35;;;;;;;35.78;27.20;;;16.40;99.90;;;;;;5051499;28;20893;-65
2022/06/04 03:41:00;;;;;;;37.10;27.63;;;16.50;99.90;;;;;;5052532;28;20382;-66
2022/06/04 03:43:26;;;;;;;40.67;28.95;;;16.50;99.90;;;;;;5051606;28;20388;-65
2022/06/04 03:45:52;;;;;;;37.33;28.88;;;16.60;99.90;;;;;;5052407;28;20870;-65
2022/06/04 03:48:18;;;;;;;34.43;26.53;;;16.70;99.90;;;;;;5052445;28;20381;-65
2022/06/04 03:50:43;;;;;;;38.25;27.23;;;16.70;99.90;;;;;;5051692;28;20385;-65
2022/06/04 03:53:09;;;;;;;36.00;27.25;;;16.70;99.90;;;;;;5052277;28;20391;-65
2022/06/04 03:55:35;;;;;;;33.53;25.33;;;16.70;99.90;;;;;;5051316;28;20520;-66
2022/06/04 03:58:01;;;;;;;33.63;24.70;;;16.80;99.90;;;;;;5052495;28;20853;-66
2022/06/04 04:00:28;;;;;;;33.58;25.25;;;16.90;99.90;;;;;;5051765;28;20501;-65
2022/06/04 04:03:00;;;;;;;39.67;28.13;;;17.00;99.90;;;;;;5052236;28;20393;-65
2022/06/04 04:05:31;;;;;;;36.50;27.90;;;17.20;99.90;;;;;;5051389;28;20405;-62
2022/06/04 04:07:57;;;;;;;34.65;27.52;;;17.20;99.90;;;;;;5051907;28;20409;-65
2022/06/04 04:10:25;;;;;;;34.60;26.40;;;17.30;99.90;;;;;;5051617;28;20428;-57
2022/06/04 04:12:51;;;;;;;33.38;26.95;;;17.20;95.20;;;;;;5051820;28;20435;-66
2022/06/04 04:15:17;;;;;;;34.90;26.33;;;17.20;99.90;;;;;;5051714;28;20390;-64
2022/06/04 04:17:43;;;;;;;34.10;26.70;;;17.30;99.90;;;;;;5051087;28;20389;-64
2022/06/04 04:20:25;;;;;;;32.30;24.93;;;17.40;99.90;;;;;;5051712;28;20382;-64
2022/06/04 04:22:51;;;;;;;36.83;26.90;;;17.60;99.90;;;;;;5050869;28;20418;-64
2022/06/04 04:25:19;;;;;;;32.78;24.45;;;17.80;99.90;;;;;;5051414;28;20424;-63
2022/06/04 04:27:46;;;;;;;29.08;23.17;;;17.80;80.50;;;;;;5051160;28;20643;-65
2022/06/04 04:30:14;;;;;;;29.33;22.30;;;17.80;70.90;;;;;;5051565;28;20374;-65
2022/06/04 04:32:40;;;;;;;27.55;20.38;;;17.70;94.90;;;;;;5051043;28;20384;-64
2022/06/04 04:35:11;;;;;;;24.88;19.30;;;17.80;99.90;;;;;;5051528;28;20390;-65
2022/06/04 04:37:37;;;;;;;23.00;17.98;;;17.90;99.90;;;;;;5050939;28;20858;-65
2022/06/04 04:40:04;;;;;;;23.37;17.40;;;18.10;99.90;;;;;;5051638;28;20386;-64
2022/06/04 04:42:30;;;;;;;23.80;16.70;;;18.20;99.90;;;;;;5050869;28;20427;-64
2022/06/04 04:44:55;;;;;;;20.77;16.17;;;18.40;95.80;;;;;;5051698;28;20409;-65
2022/06/04 04:47:21;;;;;;;21.33;16.10;;;18.60;82.90;;;;;;5050871;28;20378;-58
2022/06/04 04:49:47;;;;;;;21.43;14.73;;;18.80;23.10;;;;;;5050980;28;20472;-65
2022/06/04 04:52:13;;;;;;;19.58;14.30;;;19.00;9.10;;;;;;5051113;28;20479;-65
2022/06/04 04:54:38;;;;;;;17.23;13.10;;;19.20;1.00;;;;;;5050981;28;20386;-65
2022/06/04 04:57:04;;;;;;;17.30;12.10;;;19.90;1.00;;;;;;5051268;28;20452;-65
2022/06/04 04:59:30;;;;;;;16.63;12.15;;;20.90;1.00;;;;;;5050726;28;20377;-65
2022/06/04 05:01:56;;;;;;;17.07;12.00;;;21.80;1.00;;;;;;5051135;28;20882;-66
2022/06/04 05:04:22;;;;;;;14.20;10.20;;;22.10;1.00;;;;;;5051214;28;20369;-60
2022/06/04 05:06:47;;;;;;;16.50;10.35;;;22.50;1.00;;;;;;5050308;28;20421;-68
2022/06/04 05:09:14;;;;;;;14.73;10.00;;;22.80;1.00;;;;;;5051192;28;20704;-65
2022/06/04 05:11:39;;;;;;;14.30;10.80;;;23.60;99.90;;;;;;5048596;28;20436;-67
2022/06/04 05:14:05;;;;;;;14.80;10.13;;;23.60;99.90;;;;;;5047503;28;20413;-64
2022/06/04 05:16:38;;;;;;;15.20;11.10;;;23.90;99.90;;;;;;5037779;28;20407;-65
2022/06/04 05:19:04;;;;;;;14.90;10.73;;;23.40;99.90;;;;;;5031496;28;20392;-65
2022/06/04 05:21:39;;;;;;;15.00;10.70;;;22.90;99.90;;;;;;5029890;28;20868;-66
2022/06/04 05:24:06;;;;;;;16.95;10.82;;;22.60;1.00;;;;;;5043205;28;20413;-63
2022/06/04 05:26:32;;;;;;;16.10;11.10;;;22.00;99.90;;;;;;5049462;28;20913;-66
2022/06/04 05:28:58;;;;;;;16.20;11.20;;;21.80;99.90;;;;;;5049975;28;20964;-65
2022/06/04 05:31:24;;;;;;;18.38;11.77;;;21.80;1.00;;;;;;5049573;28;20492;-59
2022/06/04 05:33:50;;;;;;;17.75;11.30;;;21.70;1.00;;;;;;5049873;28;20378;-65
2022/06/04 05:36:15;;;;;;;16.07;11.17;;;21.50;1.00;;;;;;5050281;28;20408;-65
2022/06/04 05:38:42;;;;;;;16.53;11.33;;;21.20;1.00;;;;;;5048278;28;20443;-56
2022/06/04 05:41:11;;;;;;;15.52;11.07;;;21.20;1.00;;;;;;5049690;28;20381;-56
2022/06/04 05:43:40;;;;;;;17.02;11.57;;;21.40;1.00;;;;;;5048760;28;21241;-56
2022/06/04 05:46:10;;;;;;;15.98;11.90;;;21.40;99.90;;;;;;5034203;28;20430;-56
2022/06/04 05:48:38;;;;;;;16.83;11.70;;;21.50;44.20;;;;;;5046225;28;20401;-56
2022/06/04 05:51:04;;;;;;;17.07;11.20;;;21.30;99.90;;;;;;5044936;28;20436;-56
2022/06/04 05:53:29;;;;;;;16.35;11.88;;;21.40;99.90;;;;;;5040893;28;20829;-57
2022/06/04 05:55:55;;;;;;;16.70;11.93;;;21.20;1.00;;;;;;5029949;28;20419;-57
2022/06/04 05:58:21;;;;;;;15.85;11.82;;;21.20;6.30;;;;;;5043968;28;20878;-57
2022/06/04 06:00:47;;;;;;;16.13;11.88;;;21.10;1.00;;;;;;5048205;28;20987;-56
2022/06/04 06:03:13;;;;;;;16.30;11.87;;;21.00;91.30;;;;;;5047199;28;20936;-57
2022/06/04 06:05:44;;;;;;;18.07;11.90;;;20.90;99.90;;;;;;5041185;28;20413;-56
2022/06/04 06:08:11;;;;;;;17.48;11.00;;;20.90;99.90;;;;;;5046771;28;20411;-57
2022/06/04 06:10:42;;;;;;;18.52;12.30;;;20.80;99.90;;;;;;5046166;28;20492;-56
2022/06/04 06:13:08;;;;;;;17.10;11.93;;;20.40;99.90;;;;;;5046775;28;20417;-56
2022/06/04 06:15:34;;;;;;;15.02;10.88;;;19.90;1.00;;;;;;5043071;28;20405;-56
2022/06/04 06:17:59;;;;;;;15.40;10.93;;;19.60;1.00;;;;;;5045958;28;20425;-56
2022/06/04 06:20:25;;;;;;;15.40;10.83;;;19.30;1.00;;;;;;5045110;28;20407;-57
2022/06/04 06:22:50;;;;;;;20.08;13.02;;;19.10;10.50;;;;;;5045065;28;20919;-60
2022/06/04 06:25:16;;;;;;;27.58;14.82;;;19.00;99.90;;;;;;5044314;28;20429;-57
2022/06/04 06:27:43;;;;;;;26.92;15.73;;;18.80;99.90;;;;;;5044269;28;20409;-55
2022/06/04 06:30:11;;;;;;;25.50;17.23;;;18.70;99.90;;;;;;5045206;28;20742;-56
2022/06/04 06:32:40;;;;;;;26.92;16.83;;;18.60;99.90;;;;;;5044598;28;20430;-57
2022/06/04 06:35:06;;;;;;;25.33;18.05;;;18.50;99.90;;;;;;5046244;28;20439;-58
2022/06/04 06:37:32;;;;;;;23.90;17.92;;;18.50;99.90;;;;;;5045688;28;20463;-57
2022/06/04 06:39:58;;;;;;;25.23;18.30;;;18.40;99.90;;;;;;5042713;28;20401;-56
2022/06/04 06:42:23;;;;;;;22.08;16.90;;;18.40;99.90;;;;;;5046431;28;20481;-56
2022/06/04 06:44:49;;;;;;;22.98;16.13;;;18.30;99.90;;;;;;5045188;28;20496;-57
2022/06/04 06:47:15;;;;;;;20.70;14.63;;;18.40;99.90;;;;;;5044029;28;20433;-58
2022/06/04 06:49:41;;;;;;;22.02;15.50;;;18.60;99.90;;;;;;5046192;28;20960;-57
2022/06/04 06:52:08;;;;;;;21.53;15.00;;;18.80;99.90;;;;;;5040921;28;20413;-58
2022/06/04 06:54:36;;;;;;;20.70;14.23;;;19.00;99.90;;;;;;5044180;28;20413;-56
2022/06/04 06:57:05;;;;;;;20.38;14.50;;;19.00;99.90;;;;;;5029257;28;20375;-56
2022/06/04 06:59:30;;;;;;;23.88;16.17;;;19.00;99.90;;;;;;5035699;28;21212;-55
2022/06/04 07:01:58;;;;;;;23.67;16.20;;;19.10;99.90;;;;;;5044044;28;20416;-57
2022/06/04 07:04:25;;;;;;;25.70;16.97;;;19.10;99.90;;;;;;5044541;28;20404;-55
2022/06/04 07:06:58;;;;;;;23.40;18.00;;;19.10;99.90;;;;;;5029763;28;20523;-57
2022/06/04 07:09:32;;;;;;;21.80;16.70;;;19.20;99.90;;;;;;5048003;28;20457;-54
2022/06/04 07:11:59;;;;;;;24.92;18.73;;;19.30;99.90;;;;;;5048616;28;20414;-55
2022/06/04 07:14:25;;;;;;;27.67;18.70;;;19.30;99.90;;;;;;5049815;28;20397;-55
2022/06/04 07:16:52;;;;;;;22.63;18.30;;;19.40;99.90;;;;;;5038161;28;21389;-56
2022/06/04 07:19:21;;;;;;;24.92;18.70;;;19.50;99.90;;;;;;5066037;28;20388;-56
2022/06/04 07:21:47;;;;;;;22.23;18.10;;;19.60;99.90;;;;;;5058408;28;21022;-55
2022/06/04 07:24:12;;;;;;;23.55;17.80;;;19.60;99.90;;;;;;5048121;28;20444;-57
2022/06/04 07:26:40;;;;;;;22.98;18.73;;;19.80;99.90;;;;;;5048349;28;20420;-59
2022/06/04 07:29:06;;;;;;;21.20;15.82;;;20.60;99.90;;;;;;5041162;28;20398;-57
2022/06/04 07:31:32;;;;;;;18.90;14.67;;;22.00;62.50;;;;;;5053839;28;20478;-57
2022/06/04 07:33:58;;;;;;;17.27;14.43;;;23.10;1.00;;;;;;5024366;28;20483;-57
2022/06/04 07:36:50;;;;;;;17.67;14.00;;;23.50;1.00;;;;;;5048215;28;20502;-57
2022/06/04 07:39:19;;;;;;;18.25;14.65;;;23.10;1.00;;;;;;5045047;28;20424;-57
2022/06/04 07:41:47;;;;;;;18.52;14.70;;;22.80;47.20;;;;;;5043942;28;20465;-57
2022/06/04 07:44:16;;;;;;;19.20;15.17;;;23.00;1.00;;;;;;5054789;28;20401;-57
2022/06/04 07:46:43;;;;;;;20.35;15.57;;;22.80;1.00;;;;;;5049904;28;20417;-58
2022/06/04 07:49:10;;;;;;;18.88;15.68;;;22.50;1.00;;;;;;5047444;28;20389;-58
2022/06/04 07:51:37;;;;;;;19.92;15.63;;;22.00;99.90;;;;;;5048408;28;20407;-57
2022/06/04 07:54:05;;;;;;;20.33;15.97;;;22.10;1.00;;;;;;5050433;28;20402;-57
2022/06/04 07:56:31;;;;;;;20.38;16.90;;;22.30;99.90;;;;;;5052687;28;20403;-57
2022/06/04 07:58:57;;;;;;;20.70;16.98;;;22.20;99.90;;;;;;5058192;28;20437;-58
2022/06/04 08:01:23;;;;;;;20.05;16.00;;;22.10;1.00;;;;;;5045860;28;20401;-58
2022/06/04 08:03:51;;;;;;;21.38;16.80;;;22.20;1.00;;;;;;5047671;28;20437;-56
2022/06/04 08:06:18;;;;;;;19.42;16.27;;;22.20;99.90;;;;;;5055690;28;20413;-56
2022/06/04 08:08:45;;;;;;;20.75;16.00;;;22.30;99.90;;;;;;5068607;28;20857;-57
2022/06/04 08:13:55;;;;;;;19.27;14.90;;;23.00;99.90;;;;;;5052427;28;20456;-56
2022/06/04 08:16:21;;;;;;;19.35;15.35;;;23.80;1.00;;;;;;5051241;28;20472;-57
2022/06/04 08:18:47;;;;;;;19.17;14.82;;;24.50;99.90;;;;;;5050603;28;20388;-57
2022/06/04 08:21:13;;;;;;;17.00;14.13;;;24.70;99.90;;;;;;5052898;28;20392;-55
2022/06/04 08:23:39;;;;;;;18.25;14.80;;;25.60;87.80;;;;;;5067165;28;20443;-57
2022/06/04 08:26:07;;;;;;;18.67;15.10;;;26.50;99.90;;;;;;5051508;28;20474;-57
2022/06/04 08:28:34;;;;;;;16.40;13.88;;;27.00;1.00;;;;;;5050666;28;20373;-56
2022/06/04 08:31:27;;;;;;;17.90;14.13;;;27.00;1.00;;;;;;5047917;28;20405;-56
2022/06/04 08:33:53;;;;;;;18.15;14.60;;;26.30;1.00;;;;;;5029324;28;20450;-57
2022/06/04 08:36:19;;;;;;;17.00;13.60;;;26.50;1.00;;;;;;5050802;28;20386;-57
2022/06/04 08:38:46;;;;;;;16.15;13.60;;;27.40;1.00;;;;;;5048785;28;20899;-58
2022/06/04 08:41:28;;;;;;;17.40;14.40;;;28.00;1.00;;;;;;5050213;28;20386;-58
2022/06/04 08:44:07;;;;;;;16.50;13.80;;;28.70;1.00;;;;;;5049809;28;20381;-57
2022/06/04 08:46:38;;;;;;;17.85;15.45;;;29.30;1.00;;;;;;5050171;28;20471;-57
2022/06/04 08:49:14;;;;;;;21.58;15.85;;;30.00;1.00;;;;;;5050698;28;20422;-57
2022/06/04 08:51:41;;;;;;;17.58;15.68;;;30.10;1.00;;;;;;5052834;28;20423;-56
2022/06/04 09:00:06;;;;;;;16.80;14.10;;;29.10;1.00;;;;;;5049498;28;20388;-58
2022/06/04 09:02:57;;;;;;;16.83;13.80;;;27.80;1.00;;;;;;5049309;28;20404;-58
2022/06/04 09:05:41;;;;;;;21.08;17.10;;;28.00;1.00;;;;;;5050270;28;20409;-58
2022/06/04 09:08:20;;;;;;;16.53;13.73;;;27.30;1.00;;;;;;5048692;28;20411;-58
2022/06/04 09:10:58;;;;;;;18.40;15.50;;;26.30;1.00;;;;;;5047244;28;20401;-57
2022/06/04 09:13:29;;;;;;;19.10;15.10;;;25.80;1.00;;;;;;5047820;28;20416;-57
2022/06/04 09:16:06;;;;;;;16.53;12.27;;;25.40;1.00;;;;;;5048328;28;20412;-57
2022/06/04 09:18:35;;;;;;;17.35;13.93;;;25.70;1.00;;;;;;5048497;28;20386;-58
2022/06/04 09:21:03;;;;;;;16.90;13.50;;;25.60;1.00;;;;;;5049302;28;20409;-57
2022/06/04 09:23:35;;;;;;;19.33;14.57;;;25.70;28.00;;;;;;5044031;28;20954;-58
2022/06/04 09:26:15;;;;;;;18.50;14.53;;;25.90;1.00;;;;;;5050384;28;20401;-57
2022/06/04 09:29:02;;;;;;;18.77;15.27;;;25.90;1.00;;;;;;5048215;28;20393;-55
2022/06/04 09:31:40;;;;;;;19.08;15.20;;;25.60;97.80;;;;;;5047447;28;20959;-57
2022/06/04 09:34:19;;;;;;;19.85;15.27;;;25.90;1.00;;;;;;5049589;28;20388;-56
2022/06/04 09:36:46;;;;;;;21.77;15.95;;;26.20;1.00;;;;;;5049060;28;20393;-56
2022/06/04 09:39:22;;;;;;;18.52;14.32;;;25.80;32.60;;;;;;5050276;28;20393;-57
2022/06/04 09:41:54;;;;;;;18.83;14.48;;;25.40;8.50;;;;;;5049688;28;20846;-56
2022/06/04 09:44:20;;;;;;;16.60;14.10;;;25.50;42.80;;;;;;5050178;28;20435;-55
2022/06/04 09:46:50;;;;;;;18.00;14.85;;;25.60;99.90;;;;;;5049295;28;20489;-56
2022/06/04 09:50:14;;;;;;;19.20;13.80;;;25.80;25.70;;;;;;5050410;28;20413;-57
2022/06/04 09:52:43;;;;;;;18.60;15.38;;;25.60;4.70;;;;;;5031225;28;20416;-55
2022/06/04 09:55:19;;;;;;;20.48;16.20;;;25.30;59.70;;;;;;5030676;28;20473;-55
2022/06/04 09:57:55;;;;;;;21.50;16.30;;;25.40;15.40;;;;;;5046261;28;20527;-56
2022/06/04 10:00:24;;;;;;;20.63;16.10;;;25.30;7.20;;;;;;5049137;28;20412;-56
2022/06/04 10:02:55;;;;;;;20.95;16.50;;;25.40;6.40;;;;;;5049178;28;20683;-56
2022/06/04 10:05:25;;;;;;;21.30;16.67;;;25.40;1.00;;;;;;5048452;28;20467;-56
2022/06/04 10:07:51;;;;;;;21.10;16.38;;;25.20;25.30;;;;;;5048141;28;20455;-56
2022/06/04 10:10:27;;;;;;;24.25;18.13;;;24.90;99.90;;;;;;5048138;28;20405;-56
2022/06/04 10:15:44;;;;;;;23.30;18.55;;;24.40;1.00;;;;;;5048076;28;20590;-56
2022/06/04 10:18:32;;;;;;;22.67;17.60;;;24.50;99.90;;;;;;5048355;28;20485;-56
2022/06/04 10:21:16;;;;;;;25.05;20.20;;;24.20;1.00;;;;;;5048851;28;20433;-57
2022/06/04 10:23:55;;;;;;;22.90;18.23;;;24.00;99.90;;;;;;5048406;28;20409;-56
2022/06/04 10:26:39;;;;;;;25.98;19.63;;;24.30;1.00;;;;;;5047733;28;20421;-56
2022/06/04 10:29:44;;;;;;;24.55;19.00;;;24.10;99.90;;;;;;5048717;28;20394;-57
2022/06/04 10:32:20;;;;;;;30.67;20.05;;;23.80;99.90;;;;;;5047461;28;20396;-57
2022/06/04 10:34:46;;;;;;;25.70;19.90;;;23.70;99.90;;;;;;5045219;28;20417;-56
2022/06/04 10:37:42;;;;;;;27.10;19.30;;;23.70;1.00;;;;;;5047052;28;20416;-57
2022/06/04 10:40:41;;;;;;;23.50;18.77;;;23.80;1.00;;;;;;5052139;28;20868;-57
2022/06/04 10:43:19;;;;;;;25.88;20.23;;;23.80;1.00;;;;;;5048782;28;20390;-57
2022/06/04 10:45:48;;;;;;;25.20;19.93;;;23.70;29.80;;;;;;5054599;28;20920;-57
2022/06/04 10:48:27;;;;;;;23.33;19.00;;;23.30;1.00;;;;;;5048394;28;20416;-57
2022/06/04 10:53:44;;;;;;;25.83;20.40;;;22.90;1.00;;;;;;5056775;28;20977;-57
2022/06/04 10:56:16;;;;;;;23.80;19.30;;;22.70;99.90;;;;;;5054728;28;20703;-57
2022/06/04 10:58:54;;;;;;;23.52;18.50;;;22.60;99.90;;;;;;5051739;28;20374;-57
2022/06/04 11:01:56;;;;;;;23.92;19.33;;;22.70;99.90;;;;;;5052206;28;20443;-57
2022/06/04 11:04:25;;;;;;;26.48;19.40;;;23.20;1.00;;;;;;5058557;28;20383;-57
2022/06/04 11:07:02;;;;;;;23.13;17.58;;;23.50;99.90;;;;;;5058360;28;21290;-57
2022/06/04 11:09:41;;;;;;;22.27;17.48;;;23.40;99.90;;;;;;5055950;28;20387;-59
2022/06/04 11:12:36;;;;;;;24.10;18.27;;;23.70;1.00;;;;;;5067770;28;20682;-56
2022/06/04 11:15:07;;;;;;;21.70;16.50;;;23.70;1.00;;;;;;5029092;28;20451;-56
2022/06/04 11:17:36;;;;;;;20.50;16.27;;;23.70;1.00;;;;;;5048035;28;20464;-57
2022/06/04 11:20:03;;;;;;;24.23;16.60;;;23.80;99.90;;;;;;5048534;28;20381;-56
2022/06/04 11:22:32;;;;;;;20.83;16.20;;;24.20;99.90;;;;;;5027800;28;20504;-59
2022/06/04 11:25:25;;;;;;;21.45;16.63;;;24.40;58.00;;;;;;5047520;28;20399;-56
2022/06/04 11:28:03;;;;;;;19.17;16.27;;;24.20;12.60;;;;;;5047371;28;20394;-68
2022/06/04 11:30:40;;;;;;;20.42;16.40;;;23.90;99.90;;;;;;5048175;28;20582;-57
2022/06/04 11:33:24;;;;;;;20.63;15.27;;;24.10;99.90;;;;;;5048778;28;20388;-64
2022/06/04 11:36:01;;;;;;;23.20;17.40;;;24.20;1.00;;;;;;5047394;28;20401;-63
2022/06/04 11:38:47;;;;;;;23.80;15.43;;;23.70;46.00;;;;;;5030504;28;20389;-63
2022/06/04 11:41:37;;;;;;;18.50;14.90;;;23.80;99.90;;;;;;5048490;28;20942;-63
2022/06/04 11:44:16;;;;;;;23.30;15.55;;;24.30;1.00;;;;;;5048643;28;20805;-63
2022/06/04 11:47:08;;;;;;;20.30;16.00;;;24.50;99.90;;;;;;5048116;28;20500;-64
2022/06/04 11:50:05;;;;;;;19.30;14.95;;;24.80;1.00;;;;;;5048048;28;20391;-63
2022/06/04 11:52:33;;;;;;;20.67;14.55;;;25.00;99.90;;;;;;5048318;28;20798;-57
2022/06/04 11:55:20;;;;;;;18.20;14.98;;;25.00;99.90;;;;;;5049305;28;20926;-63
2022/06/04 11:58:25;;;;;;;20.60;15.60;;;25.40;99.90;;;;;;5051326;28;20377;-63
2022/06/04 12:00:55;;;;;;;17.65;15.20;;;25.60;99.90;;;;;;5051346;28;20693;-63
2022/06/04 12:03:40;;;;;;;17.98;14.70;;;25.60;99.90;;;;;;5052432;28;20886;-64
2022/06/04 12:06:13;;;;;;;20.23;15.63;;;26.30;62.70;;;;;;5052045;28;20905;-63
2022/06/04 12:09:13;;;;;;;18.50;14.60;;;26.00;49.20;;;;;;5051033;28;20472;-64
2022/06/04 12:12:04;;;;;;;19.25;14.70;;;26.40;1.00;;;;;;5031784;28;20432;-65
2022/06/04 12:14:46;;;;;;;18.45;13.63;;;26.80;1.00;;;;;;5049621;28;20459;-57
2022/06/04 12:17:22;;;;;;;18.17;14.40;;;26.50;1.00;;;;;;5051975;28;20390;-65
2022/06/04 12:25:44;;;;;;;16.90;13.60;;;26.40;1.00;;;;;;5050850;28;20459;-61
2022/06/04 12:28:39;;;;;;;17.25;12.55;;;26.50;1.00;;;;;;5051847;28;20483;-63
2022/06/04 12:31:05;;;;;;;15.25;12.07;;;26.20;1.00;;;;;;5051910;28;20424;-63
2022/06/04 12:33:48;;;;;;;18.27;12.80;;;25.90;1.00;;;;;;5051087;28;20409;-58
2022/06/04 12:36:32;;;;;;;14.80;11.80;;;25.90;1.00;;;;;;5051233;28;20389;-63
2022/06/04 12:39:38;;;;;;;15.75;12.80;;;26.10;1.00;;;;;;5051299;28;20374;-63
2022/06/04 12:42:11;;;;;;;16.40;11.85;;;26.50;1.00;;;;;;5051313;28;20417;-64
2022/06/04 12:44:38;;;;;;;16.30;12.90;;;26.30;1.00;;;;;;5050177;28;20389;-64
2022/06/04 12:47:39;;;;;;;14.37;11.77;;;26.20;1.00;;;;;;5051120;28;20420;-64
2022/06/04 12:50:16;;;;;;;17.33;12.95;;;26.30;1.00;;;;;;4950555;29;20487;-63
2022/06/04 12:52:47;;;;;;;16.65;11.30;;;26.50;1.00;;;;;;5037332;28;20508;-64
2022/06/04 12:55:26;;;;;;;14.70;12.45;;;26.70;1.00;;;;;;5050612;28;20762;-64
2022/06/04 12:58:01;;;;;;;15.32;12.40;;;27.30;1.00;;;;;;5050127;28;20460;-63
2022/06/04 13:00:41;;;;;;;15.13;12.00;;;27.60;1.00;;;;;;5050339;28;20874;-64
2022/06/04 13:03:07;;;;;;;15.15;11.43;;;27.40;1.00;;;;;;5050590;28;20484;-62
2022/06/04 13:05:54;;;;;;;14.20;11.87;;;27.40;1.00;;;;;;5050159;28;20867;-58
2022/06/04 13:08:28;;;;;;;16.50;11.10;;;27.40;1.00;;;;;;5050455;28;20388;-64
2022/06/04 13:10:58;;;;;;;14.38;12.00;;;27.60;1.00;;;;;;5050041;28;20386;-64
2022/06/04 13:13:52;;;;;;;15.27;11.27;;;27.90;1.00;;;;;;5050746;28;20388;-64
2022/06/04 13:16:24;;;;;;;16.80;13.40;;;27.80;1.00;;;;;;5050926;28;20397;-64
2022/06/04 13:19:00;;;;;;;16.88;11.40;;;27.70;1.00;;;;;;5049823;28;20451;-63
2022/06/04 13:21:27;;;;;;;15.87;12.20;;;27.90;1.00;;;;;;5050403;28;20378;-64
2022/06/04 13:23:59;;;;;;;17.17;11.50;;;27.70;1.00;;;;;;5049920;28;20481;-64